Terminal Aerodrome Forecast
Issued by NWS Quad Cities IA IL

Home | Current Version | Previous Version | Text Only | Print | Product List | Glossary On
Versions: 1 2 3 4 5 6 7 8 9 10 11 12 13 14
000
FTUS43 KDVN 252100 AAB
TAFDBQ
TAF AMD
KDBQ 252138Z 2522/2618 07010KT 1/2SM SN FZFG VV010
     FM260000 06010KT 1SM -SN BR OVC004
     FM260200 02011KT 3SM -SN OVC008
     FM260600 01012KT P6SM BKN015
     FM261200 36013KT P6SM OVC100=

USA.gov is the U.S. government's official web portal to all federal, state and local government web resources and services.